Time;durP1;ratioP1;P1;durP2;ratioP2;P2;SDS_P1;SDS_P2;PMS_P1;PMS_P2;Temp;Humidity;BMP_temperature;BMP_pressure;BME280_temperature;BME280_humidity;BME280_pressure;Samples;Min_cycle;Max_cycle;Signal;HPM_P1;HPM_P2
2022/03/25 00:02:14;;;;;;;;;;;;;;;2.59;71.39;101731.00;5074192;28;1241;-90
2022/03/25 00:04:39;;;;;;;;;;;;;;;2.78;71.32;101751.09;5072167;28;1691;-89
2022/03/25 00:07:05;;;;;;;;;;;;;;;2.75;71.29;101754.19;5073549;28;1202;-89
2022/03/25 00:09:30;;;;;;;;;;;;;;;2.71;71.47;101749.38;5072229;28;1202;-90
2022/03/25 00:11:55;;;;;;;;;;;;;;;2.66;71.33;101761.63;5072257;28;944;-89
2022/03/25 00:14:20;;;;;;;;;;;;;;;2.76;71.22;101753.16;5072118;28;1082;-88
2022/03/25 00:16:45;;;;;;;;;;;;;;;2.69;70.98;101755.00;5072502;28;1274;-89
2022/03/25 00:19:11;;;;;;;;;;;;;;;2.84;71.61;101755.69;5072533;28;1956;-89
2022/03/25 00:21:37;;;;;;;;;;;;;;;2.81;71.30;101760.66;5072469;28;1572;-89
2022/03/25 00:24:02;;;;;;;;;;;;;;;2.64;71.37;101758.28;5072270;28;1336;-89
2022/03/25 00:26:27;;;;;;;;;;;;;;;2.63;72.04;101753.91;5075610;28;1356;-89
2022/03/25 00:28:52;;;;;;;;;;;;;;;2.65;71.91;101759.94;5075882;28;1278;-89
2022/03/25 00:31:17;;;;;;;;;;;;;;;2.61;71.37;101744.34;5075869;28;1303;-89
2022/03/25 00:33:44;;;;;;;;;;;;;;;2.54;71.35;101743.47;5075783;28;1208;-89
2022/03/25 00:36:10;;;;;;;;;;;;;;;2.41;71.37;101741.47;5075925;28;1214;-89
2022/03/25 00:38:35;;;;;;;;;;;;;;;2.30;71.42;101744.72;5075771;28;1942;-89
2022/03/25 00:41:00;;;;;;;;;;;;;;;2.15;71.27;101744.81;5075834;28;1164;-89
2022/03/25 00:43:26;;;;;;;;;;;;;;;1.70;71.99;101735.22;5075623;28;829;-89
2022/03/25 00:45:51;;;;;;;;;;;;;;;1.44;73.67;101740.38;5075237;28;1727;-90
2022/03/25 00:48:17;;;;;;;;;;;;;;;1.73;73.32;101751.06;5075383;28;1532;-90
2022/03/25 00:50:42;;;;;;;;;;;;;;;1.93;73.35;101745.03;5076778;28;823;-89
2022/03/25 00:53:08;;;;;;;;;;;;;;;1.89;72.52;101740.00;5076808;28;1214;-89
2022/03/25 00:55:38;;;;;;;;;;;;;;;2.00;73.19;101740.50;5075403;28;1313;-89
2022/03/25 00:58:03;;;;;;;;;;;;;;;2.11;72.64;101740.84;5075207;28;1580;-89
2022/03/25 01:00:28;;;;;;;;;;;;;;;1.96;72.17;101744.66;5075181;28;1948;-90
2022/03/25 01:02:54;;;;;;;;;;;;;;;1.90;72.04;101738.97;5075367;28;1187;-89
2022/03/25 01:05:19;;;;;;;;;;;;;;;1.85;72.14;101736.03;5075449;28;1496;-89
2022/03/25 01:07:44;;;;;;;;;;;;;;;2.00;73.15;101743.22;5076422;28;1177;-90
2022/03/25 01:10:10;;;;;;;;;;;;;;;2.21;72.35;101732.41;5075229;28;1184;-89
2022/03/25 01:12:35;;;;;;;;;;;;;;;2.16;72.27;101730.28;5075150;28;1345;-89
2022/03/25 01:15:00;;;;;;;;;;;;;;;2.04;72.49;101736.41;5075163;28;972;-89
2022/03/25 01:17:27;;;;;;;;;;;;;;;1.90;73.27;101736.28;5074872;28;1354;-89
2022/03/25 01:19:52;;;;;;;;;;;;;;;2.13;72.95;101736.06;5074644;28;1898;-89
2022/03/25 01:22:17;;;;;;;;;;;;;;;1.92;72.09;101736.09;5075234;28;708;-90
2022/03/25 01:24:42;;;;;;;;;;;;;;;1.86;73.09;101739.56;5075015;28;850;-89
2022/03/25 01:27:07;;;;;;;;;;;;;;;1.84;72.81;101731.66;5074822;28;1205;-89
2022/03/25 01:29:32;;;;;;;;;;;;;;;1.88;72.51;101735.63;5074985;28;1291;-90
2022/03/25 01:31:59;;;;;;;;;;;;;;;1.73;72.62;101737.56;5074694;28;1291;-90
2022/03/25 01:34:24;;;;;;;;;;;;;;;1.67;72.68;101734.81;5075063;28;1238;-89
2022/03/25 01:36:49;;;;;;;;;;;;;;;1.60;72.80;101733.91;5073795;28;1381;-90
2022/03/25 01:39:14;;;;;;;;;;;;;;;1.49;72.77;101729.84;5075733;28;1959;-90
2022/03/25 01:41:40;;;;;;;;;;;;;;;1.40;72.83;101734.50;5074700;28;1309;-89
2022/03/25 01:44:08;;;;;;;;;;;;;;;1.44;73.91;101735.81;5074501;28;1447;-89
2022/03/25 01:46:34;;;;;;;;;;;;;;;1.55;73.47;101739.00;5074598;28;1191;-89
2022/03/25 01:49:08;;;;;;;;;;;;;;;1.23;74.21;101738.44;5074803;28;1270;-89
2022/03/25 01:51:34;;;;;;;;;;;;;;;1.29;74.02;101737.69;5074505;28;1171;-89
2022/03/25 01:54:20;;;;;;;;;;;;;;;1.18;73.74;101737.34;5074396;28;1569;-89
2022/03/25 01:56:48;;;;;;;;;;;;;;;1.36;73.45;101740.50;5073719;28;1196;-89
2022/03/25 01:59:13;;;;;;;;;;;;;;;1.09;73.93;101732.06;5074191;28;1978;-88
2022/03/25 02:01:40;;;;;;;;;;;;;;;1.20;73.82;101729.91;5074196;28;1584;-90
2022/03/25 02:04:05;;;;;;;;;;;;;;;1.34;73.49;101729.03;5074502;28;1259;-89
2022/03/25 02:06:30;;;;;;;;;;;;;;;1.33;74.26;101732.75;5074098;28;1247;-90
2022/03/25 02:08:56;;;;;;;;;;;;;;;1.40;73.51;101734.50;5073871;28;1224;-89
2022/03/25 02:11:21;;;;;;;;;;;;;;;1.47;73.28;101735.41;5074304;28;1369;-90
2022/03/25 02:13:46;;;;;;;;;;;;;;;1.54;73.48;101732.78;5073886;28;1325;-89
2022/03/25 02:16:11;;;;;;;;;;;;;;;1.55;72.89;101733.63;5074192;28;992;-89
2022/03/25 02:18:37;;;;;;;;;;;;;;;1.45;72.72;101742.84;5073675;28;1889;-89
2022/03/25 02:21:02;;;;;;;;;;;;;;;1.24;73.30;101742.81;5073237;28;1553;-90
2022/03/25 02:23:27;;;;;;;;;;;;;;;1.42;73.77;101737.84;5074325;28;1441;-89
2022/03/25 02:25:53;;;;;;;;;;;;;;;1.37;73.29;101734.03;5073085;28;1582;-90
2022/03/25 02:28:19;;;;;;;;;;;;;;;1.36;73.27;101738.59;5073340;28;1552;-89
2022/03/25 02:30:44;;;;;;;;;;;;;;;1.18;73.47;101746.28;5073561;28;1625;-90
2022/03/25 02:33:10;;;;;;;;;;;;;;;0.89;73.51;101735.53;5073443;28;765;-90
2022/03/25 02:35:35;;;;;;;;;;;;;;;0.90;74.47;101745.28;5073486;28;1199;-89
2022/03/25 02:38:00;;;;;;;;;;;;;;;0.88;74.13;101750.00;5073307;28;1675;-90
2022/03/25 02:40:25;;;;;;;;;;;;;;;0.96;74.19;101739.97;5073676;28;1882;-90
2022/03/25 02:42:50;;;;;;;;;;;;;;;0.91;73.97;101750.50;5073646;28;905;-90
2022/03/25 02:45:20;;;;;;;;;;;;;;;0.91;73.75;101750.50;5073130;28;1039;-89
2022/03/25 02:47:46;;;;;;;;;;;;;;;0.94;74.60;101754.66;5072896;28;1330;-89
2022/03/25 02:50:11;;;;;;;;;;;;;;;1.06;74.90;101745.91;5073204;28;1214;-89
2022/03/25 02:52:37;;;;;;;;;;;;;;;1.07;74.29;101750.28;5073232;28;1214;-90
2022/03/25 02:55:02;;;;;;;;;;;;;;;0.96;73.96;101742.66;5073100;28;992;-89
2022/03/25 02:57:27;;;;;;;;;;;;;;;0.89;74.14;101746.31;5072965;28;1285;-90
2022/03/25 02:59:52;;;;;;;;;;;;;;;0.99;74.26;101746.84;5073331;28;1894;-90
2022/03/25 03:02:17;;;;;;;;;;;;;;;0.84;73.92;101741.47;5073070;28;1043;-89
2022/03/25 03:04:42;;;;;;;;;;;;;;;0.71;73.93;101744.81;5073124;28;1108;-90
2022/03/25 03:07:08;;;;;;;;;;;;;;;0.82;74.21;101754.31;5073021;28;1200;-89
2022/03/25 03:09:33;;;;;;;;;;;;;;;0.86;74.13;101747.50;5073219;28;1230;-90
2022/03/25 03:11:58;;;;;;;;;;;;;;;0.83;73.96;101742.50;5072866;28;1198;-89
2022/03/25 03:14:24;;;;;;;;;;;;;;;0.66;73.06;101749.09;5072858;28;960;-90
2022/03/25 03:16:49;;;;;;;;;;;;;;;0.51;73.85;101749.06;5073154;28;988;-90
2022/03/25 03:19:15;;;;;;;;;;;;;;;0.60;75.08;101747.13;5072673;28;1894;-90
2022/03/25 03:24:36;;;;;;;;;;;;;;;0.70;75.16;101750.38;5074277;28;866;-90
2022/03/25 03:27:01;;;;;;;;;;;;;;;0.57;74.41;101760.97;5072707;28;1216;-90
2022/03/25 03:29:26;;;;;;;;;;;;;;;0.47;74.74;101757.72;5072696;28;1294;-90
2022/03/25 03:31:52;;;;;;;;;;;;;;;0.49;74.94;101764.59;5072796;28;1215;-90
2022/03/25 03:34:17;;;;;;;;;;;;;;;0.48;74.79;101762.09;5072634;28;1246;-90
2022/03/25 03:36:42;;;;;;;;;;;;;;;0.55;74.81;101765.72;5072966;28;1322;-90
2022/03/25 03:39:07;;;;;;;;;;;;;;;0.44;74.08;101760.75;5072481;28;1893;-91
2022/03/25 03:41:33;;;;;;;;;;;;;;;0.46;74.33;101762.25;5072979;28;888;-90
2022/03/25 03:43:58;;;;;;;;;;;;;;;0.41;74.77;101761.97;5072601;28;1194;-90
2022/03/25 03:46:23;;;;;;;;;;;;;;;0.43;74.72;101757.22;5072643;28;1043;-90
2022/03/25 03:48:48;;;;;;;;;;;;;;;0.34;74.26;101753.78;5072797;28;1343;-90
2022/03/25 03:51:14;;;;;;;;;;;;;;;0.22;74.69;101762.50;5072530;28;1318;-89
2022/03/25 03:53:39;;;;;;;;;;;;;;;0.15;75.40;101772.31;5072495;28;1275;-90
2022/03/25 03:56:06;;;;;;;;;;;;;;;0.26;75.06;101755.72;5072650;28;1050;-90
2022/03/25 03:58:31;;;;;;;;;;;;;;;0.36;75.66;101756.28;5072396;28;1396;-91
2022/03/25 04:00:56;;;;;;;;;;;;;;;0.37;75.46;101758.81;5075134;28;1897;-90
2022/03/25 04:03:21;;;;;;;;;;;;;;;0.35;75.06;101760.84;5076451;28;1234;-90
2022/03/25 04:05:46;;;;;;;;;;;;;;;0.31;74.73;101767.63;5076520;28;905;-89
2022/03/25 04:08:11;;;;;;;;;;;;;;;0.36;75.48;101765.22;5076631;28;1267;-90
2022/03/25 04:10:37;;;;;;;;;;;;;;;0.40;75.40;101762.16;5076566;28;1428;-89
2022/03/25 04:13:02;;;;;;;;;;;;;;;0.34;75.01;101763.75;5076296;28;1301;-90
2022/03/25 04:15:27;;;;;;;;;;;;;;;0.17;75.04;101763.03;5076357;28;967;-90
2022/03/25 04:17:52;;;;;;;;;;;;;;;0.10;75.17;101762.06;5076133;28;1332;-90
2022/03/25 04:20:18;;;;;;;;;;;;;;;0.00;75.17;101772.28;5076448;28;1967;-90
2022/03/25 04:22:43;;;;;;;;;;;;;;;0.04;75.20;101762.81;5076184;28;1377;-90
2022/03/25 04:25:09;;;;;;;;;;;;;;;-0.01;75.27;101770.59;5076025;28;1356;-89
2022/03/25 04:27:44;;;;;;;;;;;;;;;-0.01;75.39;101770.59;5077204;28;1206;-90
2022/03/25 04:30:10;;;;;;;;;;;;;;;-0.03;75.22;101770.78;5076036;28;1304;-89
2022/03/25 04:32:35;;;;;;;;;;;;;;;-0.04;75.16;101766.41;5075876;28;1361;-90
2022/03/25 04:35:00;;;;;;;;;;;;;;;0.00;75.67;101774.97;5075945;28;1345;-89
2022/03/25 04:37:25;;;;;;;;;;;;;;;0.03;75.67;101774.59;5075920;28;1264;-89
2022/03/25 04:39:50;;;;;;;;;;;;;;;-0.03;75.66;101770.78;5076037;28;1901;-90
2022/03/25 04:42:15;;;;;;;;;;;;;;;-0.01;75.61;101768.75;5075870;28;936;-90
2022/03/25 04:44:41;;;;;;;;;;;;;;;-0.06;75.55;101770.28;5075947;28;952;-90
2022/03/25 04:47:06;;;;;;;;;;;;;;;-0.07;75.16;101771.28;5075785;28;1173;-90
2022/03/25 04:49:31;;;;;;;;;;;;;;;-0.16;75.19;101772.38;5076045;28;1206;-89
2022/03/25 04:51:56;;;;;;;;;;;;;;;-0.09;75.45;101778.75;5075814;28;1194;-90
2022/03/25 04:54:21;;;;;;;;;;;;;;;-0.05;75.67;101778.19;5075986;28;1324;-90
2022/03/25 04:56:46;;;;;;;;;;;;;;;-0.11;75.58;101783.47;5075966;28;1265;-90
2022/03/25 04:59:12;;;;;;;;;;;;;;;-0.08;75.33;101778.53;5075647;28;1890;-90
2022/03/25 05:01:37;;;;;;;;;;;;;;;-0.06;75.14;101778.34;5076106;28;1212;-90
2022/03/25 05:04:02;;;;;;;;;;;;;;;-0.13;75.24;101780.94;5075297;28;1035;-90
2022/03/25 05:06:27;;;;;;;;;;;;;;;-0.18;75.18;101775.28;5075363;28;1219;-90
2022/03/25 05:08:52;;;;;;;;;;;;;;;-0.13;75.60;101783.63;5075474;28;1506;-89
2022/03/25 05:11:18;;;;;;;;;;;;;;;-0.23;75.36;101784.88;5075408;28;1313;-90
2022/03/25 05:13:43;;;;;;;;;;;;;;;-0.35;74.60;101783.63;5075339;28;1226;-90
2022/03/25 05:16:08;;;;;;;;;;;;;;;-0.56;75.01;101787.75;5075471;28;1198;-90
2022/03/25 05:18:34;;;;;;;;;;;;;;;-0.45;75.83;101787.38;5075369;28;1198;-90
2022/03/25 05:21:01;;;;;;;;;;;;;;;-0.34;76.04;101790.69;5075427;28;1898;-91
2022/03/25 05:23:26;;;;;;;;;;;;;;;-0.35;75.71;101786.31;5075023;28;1195;-91
2022/03/25 05:25:51;;;;;;;;;;;;;;;-0.23;75.93;101788.41;5075633;28;1050;-91
2022/03/25 05:31:39;;;;;;;;;;;;;;;-0.29;76.08;101796.34;5076884;28;607;-91
2022/03/25 05:34:36;;;;;;;;;;;;;;;-0.21;76.10;101801.69;5076533;28;920;-91
2022/03/25 05:37:02;;;;;;;;;;;;;;;-0.26;75.49;101801.38;5076677;28;1005;-91
2022/03/25 11:54:30;;;;;;;;;;;;;;;10.92;50.46;101827.94;5112377;28;1518;-91
2022/03/25 11:56:55;;;;;;;;;;;;;;;11.05;49.42;101815.81;5075887;28;1365;-91
2022/03/25 11:59:21;;;;;;;;;;;;;;;11.10;50.35;101824.94;5075888;28;1236;-92
2022/03/25 12:01:48;;;;;;;;;;;;;;;11.21;49.48;101818.53;5076184;28;1898;-91
2022/03/25 12:04:31;;;;;;;;;;;;;;;11.72;48.53;101814.53;5093524;28;806;-92
2022/03/25 12:06:58;;;;;;;;;;;;;;;11.82;47.63;101815.78;5085088;28;1616;-91
2022/03/25 12:09:32;;;;;;;;;;;;;;;11.63;47.69;101807.84;5095664;28;1580;-92
2022/03/25 12:12:01;;;;;;;;;;;;;;;11.67;48.63;101802.66;5096015;28;1175;-91
2022/03/25 12:14:33;;;;;;;;;;;;;;;11.67;48.71;101817.19;5113885;28;888;-92
2022/03/25 12:17:02;;;;;;;;;;;;;;;11.66;47.10;101807.31;5095844;28;1243;-92
2022/03/25 12:19:46;;;;;;;;;;;;;;;11.68;47.78;101801.56;5095490;28;1890;-91
2022/03/25 12:22:17;;;;;;;;;;;;;;;12.03;48.33;101798.44;5099021;28;1349;-91
2022/03/25 12:24:42;;;;;;;;;;;;;;;12.18;46.70;101798.59;5099523;28;1208;-92
2022/03/25 12:27:07;;;;;;;;;;;;;;;12.46;44.60;101798.31;5098138;28;1473;-92
2022/03/25 12:29:34;;;;;;;;;;;;;;;12.44;45.79;101799.66;5097549;28;1449;-90
2022/03/25 12:32:03;;;;;;;;;;;;;;;12.66;45.71;101799.59;5099251;28;1445;-90
2022/03/25 12:34:34;;;;;;;;;;;;;;;12.47;45.64;101799.97;5098481;28;1349;-90
2022/03/25 12:37:01;;;;;;;;;;;;;;;12.40;46.66;101796.63;5088814;28;1492;-90
2022/03/25 12:39:28;;;;;;;;;;;;;;;12.36;45.51;101800.97;5099065;28;1902;-90
2022/03/25 12:41:53;;;;;;;;;;;;;;;12.47;46.06;101793.66;5099184;28;1076;-90
2022/03/25 12:44:25;;;;;;;;;;;;;;;12.56;45.45;101788.50;5099006;28;1343;-90
2022/03/25 12:46:51;;;;;;;;;;;;;;;12.61;43.75;101786.63;5117581;28;765;-89
2022/03/25 12:49:16;;;;;;;;;;;;;;;12.86;44.08;101797.81;5112620;28;1219;-87
2022/03/25 12:51:41;;;;;;;;;;;;;;;13.03;44.58;101786.63;5104412;28;1800;-87
2022/03/25 12:54:27;;;;;;;;;;;;;;;13.10;44.52;101783.69;5098967;28;1599;-87
2022/03/25 12:56:55;;;;;;;;;;;;;;;13.07;43.83;101785.03;5111127;28;1359;-87
2022/03/25 12:59:28;;;;;;;;;;;;;;;13.22;43.62;101770.56;5079088;28;1309;-87
2022/03/25 13:01:53;;;;;;;;;;;;;;;13.29;44.46;101775.81;5078837;28;1323;-87
2022/03/25 13:04:26;;;;;;;;;;;;;;;13.34;44.30;101770.34;5079189;28;1467;-87
2022/03/25 13:06:56;;;;;;;;;;;;;;;13.48;42.21;101768.75;5089939;28;1348;-88
2022/03/25 13:09:21;;;;;;;;;;;;;;;13.60;39.91;101777.63;5099614;28;1370;-87
2022/03/25 13:11:53;;;;;;;;;;;;;;;13.64;42.85;101759.47;5090034;28;1363;-88
2022/03/25 13:14:19;;;;;;;;;;;;;;;13.79;43.70;101762.25;5114024;28;1610;-88
2022/03/25 13:16:48;;;;;;;;;;;;;;;14.05;43.01;101757.63;5099440;28;1274;-88
2022/03/25 13:19:13;;;;;;;;;;;;;;;14.44;40.76;101763.50;5099063;28;1466;-87
2022/03/25 13:21:38;;;;;;;;;;;;;;;18.12;35.50;101761.03;5091808;28;1957;-89
2022/03/25 13:24:03;;;;;;;;;;;;;;;20.89;27.90;101757.50;5090598;28;1320;-89
2022/03/25 13:26:30;;;;;;;;;;;;;;;20.72;27.66;101757.41;5089245;28;1365;-89
2022/03/25 13:28:56;;;;;;;;;;;;;;;18.95;31.32;101751.06;5109127;28;1568;-89
2022/03/25 13:31:21;;;;;;;;;;;;;;;18.10;32.30;101759.69;5100110;28;1223;-88
2022/03/25 13:33:50;;;;;;;;;;;;;;;18.08;31.20;101757.22;5104770;28;1323;-90
2022/03/25 13:36:16;;;;;;;;;;;;;;;18.53;31.48;101752.06;5086516;28;1419;-89
2022/03/25 13:38:52;;;;;;;;;;;;;;;17.59;31.52;101752.09;5079467;28;1264;-88
2022/03/25 13:41:19;;;;;;;;;;;;;;;17.64;31.73;101752.03;5095383;28;1893;-88
2022/03/25 13:43:49;;;;;;;;;;;;;;;17.75;33.82;101750.78;5099292;28;1371;-88
2022/03/25 13:46:22;;;;;;;;;;;;;;;17.51;34.96;101749.97;5098963;28;1599;-89
2022/03/25 13:48:50;;;;;;;;;;;;;;;18.02;31.47;101744.59;5099382;28;1375;-89
2022/03/25 13:51:19;;;;;;;;;;;;;;;17.84;32.04;101736.25;5084250;28;1426;-88
2022/03/25 13:53:44;;;;;;;;;;;;;;;17.22;33.50;101743.69;5093349;28;1323;-89
2022/03/25 13:56:10;;;;;;;;;;;;;;;17.52;34.04;101745.25;5098789;28;1200;-88
2022/03/25 13:58:36;;;;;;;;;;;;;;;18.35;32.11;101742.66;5098658;28;1375;-90
2022/03/25 14:01:02;;;;;;;;;;;;;;;20.66;29.81;101741.97;5117283;28;1968;-89
2022/03/25 14:03:29;;;;;;;;;;;;;;;20.14;30.06;101724.09;5098968;28;1285;-87
2022/03/25 14:06:07;;;;;;;;;;;;;;;19.21;32.56;101727.25;5098514;28;1304;-90
2022/03/25 14:08:33;;;;;;;;;;;;;;;18.25;31.94;101731.75;5099431;28;1250;-89
2022/03/25 14:10:59;;;;;;;;;;;;;;;19.98;30.48;101724.47;5098642;28;1333;-90
2022/03/25 14:13:24;;;;;;;;;;;;;;;20.23;30.81;101724.97;5093288;28;1356;-89
2022/03/25 14:15:50;;;;;;;;;;;;;;;19.05;31.64;101728.69;5081386;28;1337;-91
2022/03/25 14:18:21;;;;;;;;;;;;;;;17.68;34.75;101719.06;5078985;28;1203;-88
2022/03/25 14:20:47;;;;;;;;;;;;;;;16.95;35.32;101720.19;5097165;28;1898;-88
2022/03/25 14:23:16;;;;;;;;;;;;;;;18.38;33.20;101710.72;5079035;28;1297;-88
2022/03/25 14:25:42;;;;;;;;;;;;;;;18.67;31.14;101713.31;5078512;28;1374;-88
2022/03/25 14:28:07;;;;;;;;;;;;;;;20.56;30.15;101712.47;5078412;28;1295;-89
2022/03/25 14:30:33;;;;;;;;;;;;;;;21.66;30.04;101706.00;5078575;28;1341;-89
2022/03/25 14:32:58;;;;;;;;;;;;;;;22.22;27.00;101705.03;5078109;28;1330;-89
2022/03/25 14:35:23;;;;;;;;;;;;;;;22.26;26.79;101706.03;5078371;28;1227;-89
2022/03/25 14:37:52;;;;;;;;;;;;;;;21.59;28.86;101705.69;5078656;28;1229;-89
2022/03/25 14:40:17;;;;;;;;;;;;;;;19.78;30.64;101704.66;5086013;28;1961;-88
2022/03/25 14:42:48;;;;;;;;;;;;;;;18.49;33.68;101699.16;5098661;28;1226;-88
2022/03/25 14:45:13;;;;;;;;;;;;;;;18.96;33.75;101697.22;5098238;28;1255;-88
2022/03/25 14:47:38;;;;;;;;;;;;;;;18.93;33.09;101689.50;5099361;28;1309;-92
2022/03/25 14:50:05;;;;;;;;;;;;;;;20.14;30.34;101702.66;5097646;28;1249;-88
2022/03/25 14:52:30;;;;;;;;;;;;;;;18.85;32.63;101701.31;5097650;28;1382;-88
2022/03/25 14:54:55;;;;;;;;;;;;;;;18.58;34.67;101698.50;5097957;28;1268;-89
2022/03/25 14:57:20;;;;;;;;;;;;;;;19.60;32.78;101696.16;5116220;28;797;-90
2022/03/25 14:59:49;;;;;;;;;;;;;;;20.38;30.81;101702.38;5097531;28;1902;-88
2022/03/25 15:02:21;;;;;;;;;;;;;;;18.98;32.23;101688.56;5098001;28;1201;-89
2022/03/25 15:04:46;;;;;;;;;;;;;;;17.86;33.19;101692.47;5097790;28;1370;-89
2022/03/25 15:07:11;;;;;;;;;;;;;;;18.03;33.84;101698.31;5097678;28;1368;-89
2022/03/25 15:09:37;;;;;;;;;;;;;;;18.33;32.12;101697.78;5097806;28;1312;-89
2022/03/25 15:12:03;;;;;;;;;;;;;;;17.57;34.95;101700.88;5097639;28;1375;-88
2022/03/25 15:14:28;;;;;;;;;;;;;;;17.76;34.18;101691.50;5096857;28;1478;-89
2022/03/25 15:16:53;;;;;;;;;;;;;;;17.37;34.94;101701.97;5097319;28;1567;-89
2022/03/25 15:19:18;;;;;;;;;;;;;;;17.21;34.24;101700.53;5096903;28;1321;-88
2022/03/25 15:21:44;;;;;;;;;;;;;;;17.69;33.75;101696.56;5097062;28;1972;-89
2022/03/25 15:24:09;;;;;;;;;;;;;;;17.90;34.65;101699.06;5096975;28;1320;-88
2022/03/25 15:26:35;;;;;;;;;;;;;;;18.37;33.19;101700.78;5096345;28;1417;-88
2022/03/25 15:29:03;;;;;;;;;;;;;;;18.06;33.67;101695.72;5097054;28;1361;-88
2022/03/25 15:34:28;;;;;;;;;;;;;;;18.05;34.14;101704.34;5112112;28;1309;-88
2022/03/25 15:36:59;;;;;;;;;;;;;;;17.43;34.51;101695.28;5092768;28;1413;-89
2022/03/25 15:42:09;;;;;;;;;;;;;;;17.96;35.05;101695.91;5115555;28;1686;-89
2022/03/25 15:44:34;;;;;;;;;;;;;;;17.73;33.72;101688.50;5115850;28;788;-91
2022/03/25 15:46:59;;;;;;;;;;;;;;;17.41;35.57;101689.22;5097389;28;1196;-89
2022/03/25 15:49:25;;;;;;;;;;;;;;;17.61;35.31;101683.38;5097201;28;1245;-89
2022/03/25 15:51:50;;;;;;;;;;;;;;;18.39;33.20;101685.47;5097027;28;1297;-89
2022/03/25 15:54:15;;;;;;;;;;;;;;;18.58;32.80;101685.44;5114120;28;972;-89
2022/03/25 15:56:41;;;;;;;;;;;;;;;17.59;34.95;101687.59;5099774;28;1125;-90
2022/03/25 15:59:06;;;;;;;;;;;;;;;17.21;35.45;101690.28;5101347;28;1280;-89
2022/03/25 16:01:31;;;;;;;;;;;;;;;16.88;35.84;101685.72;5101154;28;1901;-90
2022/03/25 16:03:56;;;;;;;;;;;;;;;17.04;36.42;101678.88;5101323;28;1362;-89
2022/03/25 16:06:21;;;;;;;;;;;;;;;16.85;36.38;101692.66;5101077;28;1301;-89
2022/03/25 16:08:46;;;;;;;;;;;;;;;17.38;35.09;101684.25;5100677;28;1270;-90
2022/03/25 16:11:15;;;;;;;;;;;;;;;17.26;35.11;101683.88;5101290;28;991;-90
2022/03/25 16:13:40;;;;;;;;;;;;;;;17.55;34.12;101678.22;5101080;28;1166;-88
2022/03/25 16:16:05;;;;;;;;;;;;;;;17.70;32.65;101683.56;5101134;28;1237;-89
2022/03/25 16:18:34;;;;;;;;;;;;;;;18.34;32.96;101681.97;5101147;28;1321;-89
2022/03/25 16:21:01;;;;;;;;;;;;;;;18.71;31.82;101678.28;5100806;28;1902;-89
2022/03/25 16:23:29;;;;;;;;;;;;;;;18.63;33.35;101688.13;5100504;28;1218;-89
2022/03/25 16:25:54;;;;;;;;;;;;;;;18.20;33.12;101686.66;5100737;28;1380;-88
2022/03/25 16:28:20;;;;;;;;;;;;;;;17.54;35.23;101685.69;5100724;28;1314;-90
2022/03/25 16:30:46;;;;;;;;;;;;;;;17.07;34.44;101685.78;5100719;28;1363;-89
2022/03/25 16:33:11;;;;;;;;;;;;;;;16.54;35.84;101688.53;5101154;28;1105;-89
2022/03/25 16:35:36;;;;;;;;;;;;;;;16.31;36.19;101700.34;5100533;28;1302;-88
2022/03/25 16:38:01;;;;;;;;;;;;;;;16.14;37.48;101690.56;5100544;28;988;-90
2022/03/25 16:40:27;;;;;;;;;;;;;;;15.91;36.91;101699.56;5100335;28;1967;-90
2022/03/25 16:42:55;;;;;;;;;;;;;;;15.75;36.45;101700.75;5100628;28;1456;-89
2022/03/25 16:45:26;;;;;;;;;;;;;;;16.01;37.18;101701.41;5100566;28;1152;-90
2022/03/25 16:47:51;;;;;;;;;;;;;;;15.94;36.84;101692.63;5100148;28;1176;-89
2022/03/25 16:50:17;;;;;;;;;;;;;;;15.48;38.07;101699.22;5100435;28;1232;-89
2022/03/25 16:52:44;;;;;;;;;;;;;;;15.28;39.57;101693.00;5100170;28;1101;-89
2022/03/25 16:55:11;;;;;;;;;;;;;;;15.10;39.85;101698.03;5099833;28;1223;-88
2022/03/25 16:57:36;;;;;;;;;;;;;;;14.84;41.38;101692.88;5100437;28;1306;-88
2022/03/25 17:00:05;;;;;;;;;;;;;;;14.70;40.83;101689.91;5100067;28;1975;-88
2022/03/25 17:02:30;;;;;;;;;;;;;;;14.58;41.51;101701.22;5099744;28;1294;-89
2022/03/25 17:04:55;;;;;;;;;;;;;;;14.47;41.54;101699.56;5100138;28;718;-88
2022/03/25 17:07:20;;;;;;;;;;;;;;;14.30;42.06;101696.22;5099292;28;1080;-88
2022/03/25 17:09:45;;;;;;;;;;;;;;;14.12;43.85;101694.06;5100045;28;1269;-88
2022/03/25 17:12:11;;;;;;;;;;;;;;;13.95;41.80;101703.38;5099733;28;1028;-88
2022/03/25 17:14:36;;;;;;;;;;;;;;;13.82;43.72;101701.19;5099745;28;1714;-88
2022/03/25 17:17:01;;;;;;;;;;;;;;;13.70;43.04;101703.34;5096012;28;982;-88
2022/03/25 17:19:26;;;;;;;;;;;;;;;13.62;43.55;101712.97;5096219;28;1379;-88
2022/03/25 17:21:51;;;;;;;;;;;;;;;13.44;45.03;101710.69;5096070;28;1886;-89
2022/03/25 17:24:17;;;;;;;;;;;;;;;13.21;46.65;101714.75;5096087;28;1244;-88
2022/03/25 17:26:46;;;;;;;;;;;;;;;13.09;46.16;101711.38;5099862;28;1647;-88
2022/03/25 17:29:11;;;;;;;;;;;;;;;13.04;47.11;101722.34;5098877;28;1480;-90
2022/03/25 17:31:36;;;;;;;;;;;;;;;12.80;48.61;101721.94;5099132;28;1218;-88
2022/03/25 17:34:02;;;;;;;;;;;;;;;12.61;48.87;101728.09;5099059;28;1404;-89
2022/03/25 17:36:27;;;;;;;;;;;;;;;12.44;50.56;101720.84;5099309;28;1653;-89
2022/03/25 17:38:59;;;;;;;;;;;;;;;12.10;51.75;101722.22;5097529;28;1507;-88
2022/03/25 17:41:24;;;;;;;;;;;;;;;11.92;52.30;101726.16;5097903;28;1893;-89
2022/03/25 17:43:50;;;;;;;;;;;;;;;11.91;52.13;101724.50;5083532;28;1358;-88
2022/03/25 17:46:15;;;;;;;;;;;;;;;11.58;54.36;101724.66;5078541;28;833;-89
2022/03/25 17:48:40;;;;;;;;;;;;;;;11.17;56.21;101723.34;5095005;28;1338;-89
2022/03/25 17:51:06;;;;;;;;;;;;;;;10.75;57.18;101723.88;5100708;28;1314;-89
2022/03/25 17:53:31;;;;;;;;;;;;;;;10.63;57.64;101719.59;5100289;28;1400;-89
2022/03/25 17:55:57;;;;;;;;;;;;;;;10.54;58.08;101721.94;5098094;28;1309;-89
2022/03/25 17:58:24;;;;;;;;;;;;;;;10.53;58.54;101733.97;5098257;28;1560;-89
2022/03/25 18:00:50;;;;;;;;;;;;;;;10.36;57.99;101731.25;5097397;28;1897;-88
2022/03/25 18:03:15;;;;;;;;;;;;;;;10.21;57.87;101734.53;5116066;28;821;-90
2022/03/25 18:05:41;;;;;;;;;;;;;;;10.16;58.56;101733.59;5085150;28;1558;-89
2022/03/25 18:08:10;;;;;;;;;;;;;;;10.18;58.66;101735.03;5079845;28;1465;-89
2022/03/25 18:10:35;;;;;;;;;;;;;;;9.60;60.82;101746.25;5097484;28;1271;-88
2022/03/25 18:13:00;;;;;;;;;;;;;;;9.67;59.88;101741.47;5096774;28;1889;-89
2022/03/25 18:15:26;;;;;;;;;;;;;;;9.97;58.87;101745.81;5101243;28;1249;-88
2022/03/25 18:17:51;;;;;;;;;;;;;;;9.99;58.25;101751.88;5096808;28;1803;-89
2022/03/25 18:20:18;;;;;;;;;;;;;;;9.72;59.44;101748.91;5092372;28;1969;-88
2022/03/25 18:22:43;;;;;;;;;;;;;;;9.37;60.74;101757.25;5096836;28;1610;-89
2022/03/25 18:25:09;;;;;;;;;;;;;;;9.23;60.47;101751.22;5096569;28;1303;-89
2022/03/25 18:27:35;;;;;;;;;;;;;;;9.00;61.28;101754.84;5090110;28;1501;-88
2022/03/25 18:30:00;;;;;;;;;;;;;;;8.77;62.26;101756.75;5085319;28;1358;-89
2022/03/25 18:32:26;;;;;;;;;;;;;;;8.65;62.21;101752.13;5097051;28;1360;-88
2022/03/25 18:34:52;;;;;;;;;;;;;;;8.98;61.13;101754.25;5114573;28;844;-88
2022/03/25 18:37:17;;;;;;;;;;;;;;;8.90;61.49;101756.50;5096545;28;1680;-90
2022/03/25 18:39:42;;;;;;;;;;;;;;;8.93;62.16;101762.31;5107872;28;1890;-89
2022/03/25 18:42:09;;;;;;;;;;;;;;;8.96;61.81;101763.72;5096852;28;1779;-89
2022/03/25 18:44:34;;;;;;;;;;;;;;;8.81;61.63;101761.50;5096688;28;1828;-90
2022/03/25 18:47:00;;;;;;;;;;;;;;;8.62;62.72;101768.97;5096764;28;1372;-89
2022/03/25 18:49:26;;;;;;;;;;;;;;;8.50;63.07;101770.88;5096456;28;1344;-89
2022/03/25 18:51:52;;;;;;;;;;;;;;;8.38;63.85;101766.44;5096437;28;1764;-89
2022/03/25 18:54:17;;;;;;;;;;;;;;;8.30;63.63;101770.31;5092678;28;1252;-90
2022/03/25 18:56:42;;;;;;;;;;;;;;;8.38;63.98;101770.00;5111530;28;1387;-90
2022/03/25 18:59:07;;;;;;;;;;;;;;;8.50;62.75;101772.78;5115015;28;1228;-90
2022/03/25 19:01:33;;;;;;;;;;;;;;;8.64;61.71;101772.28;5080665;28;1890;-89
2022/03/25 19:03:58;;;;;;;;;;;;;;;8.65;61.29;101775.88;5076213;28;1223;-89
2022/03/25 19:06:23;;;;;;;;;;;;;;;8.20;63.09;101779.06;5090236;28;1658;-89
2022/03/25 19:08:49;;;;;;;;;;;;;;;8.21;63.47;101780.75;5114604;28;1413;-89
2022/03/25 19:11:14;;;;;;;;;;;;;;;8.09;63.37;101787.22;5115218;28;813;-89
2022/03/25 19:13:40;;;;;;;;;;;;;;;8.06;63.90;101784.97;5095392;28;1360;-89
2022/03/25 19:16:06;;;;;;;;;;;;;;;7.91;64.14;101779.94;5098768;28;1476;-89